VDSR

Siem Reap International Airport

Siem Reap, Cambodia
TAF VDSR 221700Z 2218/2312 21010KT 9999 SCT017 SCT040 TEMPO 2219/2223 SCT015 FEW017CB BKN040
Issued Valid From Valid To
Jul-22 @ 17:00 UTC
(3 hours ago)
Jul-22 @ 18:00 UTC
(2 hours ago)
Jul-23 @ 12:00 UTC
(in 16 hours)
Jul-22 @ 18:00 to Jul-23 @ 12:00
TAF VDSR 221700Z 2218/2312 21010KT 9999 SCT017 SCT040
Wind Visibility Clouds
210° at 10 knots 10,000+ meters
  • Scattered at 1,700' AGL
  • Scattered at 4,000' AGL
Temporary Jul-22 @ 19:00 to Jul-22 @ 23:00
TEMPO 2219/2223 SCT015 FEW017CB BKN040
Clouds
  • Scattered at 1,500' AGL
  • Few at 1,700' AGL
  • Broken at 4,000' AGL
TAF VDSR 221700Z 2218/2312 21010KT 9999 SCT017 SCT040 TEMPO 2219/2223 SCT015 FEW017CB BKN040
Issued Jul-22 @ 17:00 UTC
(3 hours ago)
Valid From Jul-22 @ 18:00 UTC
(2 hours ago)
Valid To Jul-23 @ 12:00 UTC
(in 16 hours)
Jul-22 @ 18:00 - Jul-23 @ 12:00
Wind Visibility
210° at 10 knots 10,000+ meters
Clouds
  • Scattered at 1,700' AGL
  • Scattered at 4,000' AGL
Temporary Jul-22 @ 19:00 - Jul-22 @ 23:00
Clouds
  • Scattered at 1,500' AGL
  • Few at 1,700' AGL
  • Broken at 4,000' AGL